Weather Data

Pearl Creek Farm: 8878 N Farm Road 75, Walnut Grove MO 65770

<== Previous Day (Tuesday 26 Aug 2008) | Next Day (Thursday 28 Aug 2008) ==>

Summary Precipitation Data For Wednesday 27 August 2008

ElementValueUnits
Precipitation0"
Notes(none)
SourceSpringfield-Branson National Airport (SGF)

Summary Temperature Data For Wednesday 27 August 2008

ElementValueUnits
High Temperature88 oF
Low Temperature64 oF
Average Temperature76 oF
High Humidity93 %
Low Humidity38 %
Average Humidity68 %
SourceSpringfield-Branson National Airport (SGF)

Detail Temperature Data For Wednesday 27 August 2008

Date / TimeTemp (F)RH (%)Dew Pt (F)Report Date / TimeSource
2008-08-27 01:52:00 66 90 63.0 2017-12-29 19:14:24.89625 Springfield-Branson National Airport (SGF)
2008-08-27 02:52:00 65 90 62.0 2017-12-29 19:14:24.89625 Springfield-Branson National Airport (SGF)
2008-08-27 03:52:00 64 93 62.0 2017-12-29 19:14:24.89625 Springfield-Branson National Airport (SGF)
2008-08-27 04:52:00 64 93 62.0 2017-12-29 19:14:24.89625 Springfield-Branson National Airport (SGF)
2008-08-27 05:52:00 66 93 64.0 2017-12-29 19:14:24.89625 Springfield-Branson National Airport (SGF)
2008-08-27 06:52:00 67 93 65.0 2017-12-29 19:14:24.89625 Springfield-Branson National Airport (SGF)
2008-08-27 07:52:00 71 84 66.0 2017-12-29 19:14:24.89625 Springfield-Branson National Airport (SGF)
2008-08-27 08:52:00 77 71 67.0 2017-12-29 19:14:24.89625 Springfield-Branson National Airport (SGF)
2008-08-27 10:52:00 84 55 66.0 2017-12-29 19:14:24.89625 Springfield-Branson National Airport (SGF)
2008-08-27 11:52:00 84 49 63.0 2017-12-29 19:14:24.89625 Springfield-Branson National Airport (SGF)
2008-08-27 12:52:00 84 49 63.0 2017-12-29 19:14:24.89625 Springfield-Branson National Airport (SGF)
2008-08-27 13:52:00 88 39 60.0 2017-12-29 19:14:24.89625 Springfield-Branson National Airport (SGF)
2008-08-27 14:52:00 88 38 59.0 2017-12-29 19:14:24.89625 Springfield-Branson National Airport (SGF)
2008-08-27 15:52:00 87 39 59.0 2017-12-29 19:14:24.89625 Springfield-Branson National Airport (SGF)
2008-08-27 16:52:00 88 40 61.0 2017-12-29 19:14:24.89625 Springfield-Branson National Airport (SGF)
2008-08-27 17:52:00 85 45 61.0 2017-12-29 19:14:24.89625 Springfield-Branson National Airport (SGF)
2008-08-27 00:52:00 66 87 62.0 2017-12-29 19:14:24.89625 Springfield-Branson National Airport (SGF)
2008-08-27 09:52:00 81 58 65.0 2017-12-29 19:14:24.89625 Springfield-Branson National Airport (SGF)
2008-08-27 18:52:00 78 56 61.0 2017-12-29 19:14:24.89625 Springfield-Branson National Airport (SGF)
2008-08-27 19:52:00 75 66 63.0 2017-12-29 19:14:24.89625 Springfield-Branson National Airport (SGF)
2008-08-27 20:52:00 73 71 63.0 2017-12-29 19:14:24.89625 Springfield-Branson National Airport (SGF)
2008-08-27 21:52:00 73 74 64.0 2017-12-29 19:14:24.89625 Springfield-Branson National Airport (SGF)
2008-08-27 22:52:00 70 82 64.0 2017-12-29 19:14:24.89625 Springfield-Branson National Airport (SGF)
2008-08-27 23:52:00 71 81 65.0 2017-12-29 19:14:24.89625 Springfield-Branson National Airport (SGF)

A total of 24 rows are displayed.